WetterOnline ( https://www.wetteronline.de )

Wetter aktuell Wittenberge

Aktuelles Wetter: Seehausen (23m)

6-stündlich | Neueste Meldungen
Ortszeit Temperatur Wetter
Mo, 28.11. 19:00 4.7° C bewölkt
Mo, 28.11. 13:00 4.9° C bedeckt
Mo, 28.11. 7:00 3.7° C bedeckt
Mo, 28.11. 1:00 4.2° C bedeckt
So, 27.11. 19:00 5.2° C bedeckt
So, 27.11. 13:00 6.7° C wolkig
So, 27.11. 7:00 1.2° C Nebel
So, 27.11. 1:00 4.5° C bedeckt
Ortszeit Temperatur Wetter
Mo, 28.11. 22:30 3.7° C bedeckt
Mo, 28.11. 22:20 3.7° C bedeckt
Mo, 28.11. 22:10 3.8° C bedeckt
Mo, 28.11. 22:00 3.9° C bewölkt
Mo, 28.11. 21:50 3.9° C bewölkt
Mo, 28.11. 21:40 3.9° C bewölkt
Mo, 28.11. 21:30 4.0° C wolkig
Mo, 28.11. 21:00 4.0° C bewölkt
Mo, 28.11. 20:30 4.2° C bedeckt
Mo, 28.11. 20:00 4.5° C bewölkt
Mo, 28.11. 19:30 4.6° C bewölkt
Ortszeit Relative Feuchte Sichtweite
Mo, 28.11. 19:00 83% 20 km
Mo, 28.11. 13:00 78% 28 km
Mo, 28.11. 7:00 86% 22 km
Mo, 28.11. 1:00 86% 30 km
So, 27.11. 19:00 86% 30 km
So, 27.11. 13:00 81% 25 km
So, 27.11. 7:00 99% 0.7 km
So, 27.11. 1:00 97% 5.0 km
Ortszeit Relative Feuchte Sichtweite
Mo, 28.11. 22:30 87% 11 km
Mo, 28.11. 22:20 87% -
Mo, 28.11. 22:10 87% -
Mo, 28.11. 22:00 87% 12 km
Mo, 28.11. 21:50 87% -
Mo, 28.11. 21:40 87% -
Mo, 28.11. 21:30 87% 11 km
Mo, 28.11. 21:00 87% 11 km
Mo, 28.11. 20:30 86% 13 km
Mo, 28.11. 20:00 84% 16 km
Mo, 28.11. 19:30 84% 18 km
Ortszeit Niederschlagsmenge Niederschlagsart
Mo, 28.11. 19:00 0.1 l/m2 in 12 Std. Regen
Mo, 28.11. 13:00 0.1 l/m2 in 6 Std. Regen
Mo, 28.11. 7:00 0.0 l/m2 in 12 Std. -
Mo, 28.11. 1:00 0.0 l/m2 in 6 Std. -
So, 27.11. 19:00 0.0 l/m2 in 12 Std. -
So, 27.11. 13:00 0.0 l/m2 in 6 Std. -
So, 27.11. 7:00 0.0 l/m2 in 12 Std. -
So, 27.11. 1:00 0.0 l/m2 in 6 Std. -
Ortszeit Niederschlagsmenge Niederschlagsart
Mo, 28.11. 22:30 0.0 l/m2 in 1 Std. -
Mo, 28.11. 22:20 keine Meldung -
Mo, 28.11. 22:10 keine Meldung -
Mo, 28.11. 22:00 0.0 l/m2 in 1 Std. -
Mo, 28.11. 21:50 keine Meldung -
Mo, 28.11. 21:40 keine Meldung -
Mo, 28.11. 21:30 0.0 l/m2 in 1 Std. -
Mo, 28.11. 21:00 0.0 l/m2 in 1 Std. -
Mo, 28.11. 20:30 0.0 l/m2 in 1 Std. -
Mo, 28.11. 20:00 0.0 l/m2 in 1 Std. -
Mo, 28.11. 19:30 0.0 l/m2 in 1 Std. -
Ortszeit Stärke Spitze Richtung
km/h Bft. km/h Grad Sektor
Mo, 28.11. 19:00 14 3 32 130° SO
Mo, 28.11. 13:00 20 4 39 120° SO
Mo, 28.11. 7:00 19 3 33 120° SO
Mo, 28.11. 1:00 18 3 32 120° SO
So, 27.11. 19:00 15 3 24 140° SO
So, 27.11. 13:00 7 2 18 150° SO
So, 27.11. 7:00 7 2 19 150° SO
So, 27.11. 1:00 4 1 14 150° SO
Ortszeit Stärke Spitze Richtung
km/h Bft. km/h Grad Sektor
Mo, 28.11. 22:30 13 3 22 120° SO
Mo, 28.11. 22:20 13 3 - 120° SO
Mo, 28.11. 22:10 13 3 - 120° SO
Mo, 28.11. 22:00 14 3 25 120° SO
Mo, 28.11. 21:50 14 3 - 120° SO
Mo, 28.11. 21:40 14 3 - 120° SO
Mo, 28.11. 21:30 15 3 22 110° O
Mo, 28.11. 21:00 14 3 22 110° O
Mo, 28.11. 20:30 11 2 20 110° O
Mo, 28.11. 20:00 13 3 28 120° SO
Mo, 28.11. 19:30 14 3 29 120° SO
Ortszeit Untergrenze Bedeckung Gattung
total tief tief mittel hoch
Mo, 28.11. 19:00 2100 m 7/8 7/8 - - -
Mo, 28.11. 13:00 2400 m 8/8 8/8 - - -
Mo, 28.11. 7:00 1500 m 8/8 8/8 - - -
Mo, 28.11. 1:00 2400 m 8/8 8/8 - - -
So, 27.11. 19:00 3000 m 8/8 8/8 - - -
So, 27.11. 13:00 5400 m 7/8 7/8 - - -
So, 27.11. 7:00 30 m 7/8 7/8 - - -
So, 27.11. 1:00 1800 m 8/8 8/8 - - -
Ortszeit Bedeckungsgrad in Achtel und Wolkenuntergrenze
Mo, 28.11. 22:30 8(2400m)
Mo, 28.11. 22:20 8(2400m)
Mo, 28.11. 22:10 8
Mo, 28.11. 22:00 3(2100m) 6(2700m) 7(3600m)
Mo, 28.11. 21:50 3(2100m) 6(2700m) 7(3600m)
Mo, 28.11. 21:40 7
Mo, 28.11. 21:30 4(1500m) 6(2100m) 6(3900m)
Mo, 28.11. 21:00 6(1800m) 7(2400m)
Mo, 28.11. 20:30 7(1800m) 8(2400m)
Mo, 28.11. 20:00 7(1800m) 7(2700m) 7(3900m)
Mo, 28.11. 19:30 7(2100m)
Ortszeit Luftdruck NN (hPa) Tendenz (hPa in 3 Std.)
Mo, 28.11. 19:00 1015 + 0,6
Mo, 28.11. 13:00 1015 - 0,2
Mo, 28.11. 7:00 1016 - 1,1
Mo, 28.11. 1:00 1019 - 1,3
So, 27.11. 19:00 1022 - 1,2
So, 27.11. 13:00 1025 - 1,6
So, 27.11. 7:00 1028 - 0,6
So, 27.11. 1:00 1029 0,0
Ortszeit Luftdruck NN (hPa) Tendenz (hPa in 3 Std.)
Mo, 28.11. 22:30 1016 + 0,5
Mo, 28.11. 22:20 1016 keine Meldung
Mo, 28.11. 22:10 1016 keine Meldung
Mo, 28.11. 22:00 1016 + 0,3
Mo, 28.11. 21:50 1016 keine Meldung
Mo, 28.11. 21:40 1016 keine Meldung
Mo, 28.11. 21:30 1015 + 0,4
Mo, 28.11. 21:00 1015 + 0,4
Mo, 28.11. 20:30 1015 + 0,3
Mo, 28.11. 20:00 1015 + 0,1
Mo, 28.11. 19:30 1015 + 0,3
Ortszeit Schneehöhe (cm)
Mo, 28.11. 19:00 0
Mo, 28.11. 13:00 0
Mo, 28.11. 7:00 0
Mo, 28.11. 1:00 0
So, 27.11. 19:00 0
So, 27.11. 13:00 0
So, 27.11. 7:00 0
So, 27.11. 1:00 0
Ortszeit Schneehöhe (cm)
Mo, 28.11. 22:30 0
Mo, 28.11. 22:20 0
Mo, 28.11. 22:10 0
Mo, 28.11. 22:00 0
Mo, 28.11. 21:50 0
Mo, 28.11. 21:40 0
Mo, 28.11. 21:30 0
Mo, 28.11. 21:00 0
Mo, 28.11. 20:30 0
Mo, 28.11. 20:00 0
Mo, 28.11. 19:30 0
Link zu dieser Seite / Seite empfehlen

Das Wetter in ...